createdAt,value
2022-09-11T00:01:27.279Z,63.17
2022-09-11T00:03:57.325Z,62.75
2022-09-11T00:06:29.841Z,63.49
2022-09-11T00:09:03.461Z,63.47
2022-09-11T00:11:40.951Z,62.93
2022-09-11T00:14:10.178Z,63.06
2022-09-11T00:16:39.738Z,62.92
2022-09-11T00:19:10.240Z,63.10
2022-09-11T00:21:36.699Z,63.01
2022-09-11T00:24:03.914Z,62.99
2022-09-11T00:26:30.310Z,63.18
2022-09-11T00:28:57.256Z,63.52
2022-09-11T00:31:27.826Z,63.13
2022-09-11T00:33:55.073Z,62.92
2022-09-11T00:36:24.424Z,63.90
2022-09-11T00:38:51.397Z,63.41
2022-09-11T00:41:21.738Z,63.87
2022-09-11T00:43:59.912Z,64.14
2022-09-11T00:46:41.959Z,63.69
2022-09-11T00:49:30.505Z,64.35
2022-09-11T00:52:02.514Z,63.57
2022-09-11T00:54:33.431Z,64.07
2022-09-11T00:57:03.100Z,63.57
2022-09-11T00:59:32.168Z,63.92
2022-09-11T01:01:58.818Z,63.71
2022-09-11T01:04:25.687Z,64.12
2022-09-11T01:06:56.471Z,64.05
2022-09-11T01:09:25.825Z,63.67
2022-09-11T01:12:12.554Z,63.85
2022-09-11T01:14:53.005Z,63.66
2022-09-11T01:17:34.356Z,63.98
2022-09-11T01:20:12.970Z,64.19
2022-09-11T01:22:57.616Z,63.89
2022-09-11T01:25:54.687Z,63.88
2022-09-11T01:28:28.722Z,64.47
2022-09-11T01:31:02.455Z,64.63
2022-09-11T01:33:46.470Z,64.45
2022-09-11T01:36:25.631Z,64.31
2022-09-11T01:39:02.218Z,64.27
2022-09-11T01:41:34.670Z,64.35
2022-09-11T01:44:18.595Z,64.17
2022-09-11T01:46:49.812Z,67.08
2022-09-11T01:49:42.416Z,65.09
2022-09-11T01:52:12.877Z,66.43
2022-09-11T01:54:44.329Z,67.14
2022-09-11T01:57:29.502Z,65.56
2022-09-11T02:00:01.010Z,65.54
2022-09-11T02:02:38.379Z,65.70
2022-09-11T02:05:15.557Z,65.57
2022-09-11T02:07:58.128Z,65.27
2022-09-11T02:10:51.922Z,65.12
2022-09-11T02:13:27.834Z,65.29
2022-09-11T02:15:58.286Z,68.16
2022-09-11T02:18:47.446Z,66.24
2022-09-11T02:21:13.880Z,66.87
2022-09-11T02:23:40.553Z,65.93
2022-09-11T02:26:10.554Z,65.63
2022-09-11T02:28:37.344Z,65.76
2022-09-11T02:31:04.127Z,68.41
2022-09-11T02:33:37.688Z,68.76
2022-09-11T02:36:44.893Z,67.42
2022-09-11T02:39:29.589Z,68.39
2022-09-11T02:42:18.934Z,71.21
2022-09-11T02:44:57.415Z,69.15
2022-09-11T02:47:57.513Z,68.02
2022-09-11T02:50:54.824Z,68.66
2022-09-11T02:53:33.100Z,67.34
2022-09-11T02:56:14.665Z,67.71
2022-09-11T02:58:47.986Z,71.96
2022-09-11T03:01:14.524Z,69.30
2022-09-11T03:03:45.779Z,67.66
2022-09-11T03:06:17.028Z,67.59
2022-09-11T03:08:43.473Z,68.80
2022-09-11T03:11:10.698Z,67.14
2022-09-11T03:13:38.182Z,67.21
2022-09-11T03:16:05.166Z,69.68
2022-09-11T03:18:31.924Z,70.22
2022-09-11T03:20:58.403Z,70.26
2022-09-11T03:23:25.271Z,69.27
2022-09-11T03:25:51.663Z,68.13
2022-09-11T03:28:18.193Z,67.88
2022-09-11T03:30:44.613Z,67.95
2022-09-11T03:33:11.372Z,67.79
2022-09-11T03:35:38.424Z,68.03
2022-09-11T03:38:04.863Z,68.23
2022-09-11T03:40:31.269Z,67.72
2022-09-11T03:42:59.511Z,67.62
2022-09-11T03:45:26.032Z,67.58
2022-09-11T03:47:53.680Z,69.45
2022-09-11T03:50:20.120Z,71.08
2022-09-11T03:52:46.591Z,70.00
2022-09-11T03:55:13.067Z,68.92
2022-09-11T03:57:39.475Z,69.03
2022-09-11T04:00:06.835Z,69.40
2022-09-11T04:02:33.251Z,70.41
2022-09-11T04:04:59.657Z,67.77
2022-09-11T04:07:26.036Z,66.99
2022-09-11T04:09:52.430Z,68.56
2022-09-11T04:12:19.471Z,71.04
2022-09-11T04:14:45.899Z,69.75
2022-09-11T04:17:12.479Z,68.85
2022-09-11T04:19:38.853Z,68.61
2022-09-11T04:22:05.251Z,69.54
2022-09-11T04:24:31.943Z,68.55
2022-09-11T04:27:01.066Z,68.83
2022-09-11T04:29:28.495Z,67.40
2022-09-11T04:31:56.115Z,68.18
2022-09-11T04:34:22.554Z,67.69
2022-09-11T04:36:48.970Z,66.67
2022-09-11T04:39:15.437Z,67.67
2022-09-11T04:41:41.832Z,67.09
2022-09-11T04:44:08.333Z,66.44
2022-09-11T04:46:34.713Z,66.79
2022-09-11T04:49:02.213Z,67.18
2022-09-11T04:51:32.054Z,66.48
2022-09-11T04:53:59.756Z,66.61
2022-09-11T04:56:31.596Z,66.72
2022-09-11T04:59:05.579Z,67.60
2022-09-11T05:01:34.023Z,67.28
2022-09-11T05:04:01.598Z,67.31
2022-09-11T05:06:30.194Z,67.42
2022-09-11T05:09:01.358Z,68.99
2022-09-11T05:11:27.755Z,70.80
2022-09-11T05:13:54.143Z,73.22
2022-09-11T05:16:20.535Z,72.49
2022-09-11T05:18:52.461Z,70.37
2022-09-11T05:21:22.407Z,68.68
2022-09-11T05:23:51.354Z,70.61
2022-09-11T05:26:21.087Z,68.89
2022-09-11T05:28:47.768Z,68.31
2022-09-11T05:31:18.402Z,69.23
2022-09-11T05:33:45.959Z,69.12
2022-09-11T05:36:14.083Z,68.57
2022-09-11T05:38:40.974Z,68.05
2022-09-11T05:41:11.314Z,68.18
2022-09-11T05:43:39.236Z,67.69
2022-09-11T05:46:07.846Z,68.86
2022-09-11T05:48:36.854Z,69.34
2022-09-11T05:51:09.602Z,67.49
2022-09-11T05:53:37.836Z,69.57
2022-09-11T05:56:08.328Z,68.35
2022-09-11T05:58:34.851Z,68.52
2022-09-11T06:01:09.930Z,68.77
2022-09-11T06:03:37.089Z,68.86
2022-09-11T06:06:05.745Z,72.83
2022-09-11T06:08:34.425Z,70.34
2022-09-11T06:11:02.656Z,70.29
2022-09-11T06:13:31.436Z,73.20
2022-09-11T06:15:58.117Z,69.39
2022-09-11T06:18:24.544Z,70.03
2022-09-11T06:21:09.509Z,68.69
2022-09-11T06:23:37.229Z,68.52
2022-09-11T06:26:11.884Z,69.39
2022-09-11T06:28:40.912Z,69.21
2022-09-11T06:31:11.200Z,68.18
2022-09-11T06:33:39.879Z,67.90
2022-09-11T06:36:10.521Z,69.62
2022-09-11T06:38:38.222Z,71.39
2022-09-11T06:41:06.785Z,68.78
2022-09-11T06:43:33.519Z,69.02
2022-09-11T06:46:08.188Z,68.40
2022-09-11T06:48:34.902Z,67.50
2022-09-11T06:51:05.959Z,68.82
2022-09-11T06:53:33.025Z,70.63
2022-09-11T06:56:01.252Z,68.45
2022-09-11T06:58:29.237Z,68.51
2022-09-11T07:00:58.077Z,68.20
2022-09-11T07:03:24.572Z,68.00
2022-09-11T07:05:50.988Z,68.17
2022-09-11T07:08:19.773Z,67.94
2022-09-11T07:10:48.223Z,67.75
2022-09-11T07:13:15.041Z,67.96
2022-09-11T07:15:42.371Z,68.36
2022-09-11T07:18:08.905Z,69.74
2022-09-11T07:20:35.375Z,71.93
2022-09-11T07:23:01.769Z,73.84
2022-09-11T07:25:28.192Z,70.21
2022-09-11T07:27:54.936Z,72.17
2022-09-11T07:30:21.856Z,73.15
2022-09-11T07:32:49.815Z,71.68
2022-09-11T07:35:21.365Z,71.63
2022-09-11T07:37:50.827Z,72.47
2022-09-11T07:40:17.557Z,72.47
2022-09-11T07:42:44.022Z,69.69
2022-09-11T07:45:10.798Z,72.68
2022-09-11T07:47:38.475Z,71.86
2022-09-11T07:50:05.824Z,70.58
2022-09-11T07:52:32.657Z,70.25
2022-09-11T07:55:01.295Z,70.20
2022-09-11T07:57:30.091Z,71.74
2022-09-11T07:59:56.693Z,69.40
2022-09-11T08:02:23.189Z,69.58
2022-09-11T08:04:51.342Z,70.31
2022-09-11T08:07:17.838Z,71.93
2022-09-11T08:09:44.250Z,69.61
2022-09-11T08:12:11.230Z,69.79
2022-09-11T08:14:37.912Z,68.68
2022-09-11T08:17:04.527Z,68.64
2022-09-11T08:19:30.938Z,68.75
2022-09-11T08:22:00.307Z,68.06
2022-09-11T08:24:27.368Z,69.16
2022-09-11T08:26:53.789Z,69.69
2022-09-11T08:29:20.231Z,70.21
2022-09-11T08:31:46.707Z,70.67
2022-09-11T08:34:13.241Z,68.77
2022-09-11T08:36:39.725Z,69.48
2022-09-11T08:39:06.733Z,69.03
2022-09-11T08:41:57.136Z,68.68
2022-09-11T08:44:30.981Z,69.09
2022-09-11T08:47:06.540Z,69.01
2022-09-11T08:49:43.917Z,70.09
2022-09-11T08:52:15.594Z,69.93
2022-09-11T08:54:43.219Z,70.02
2022-09-11T08:57:18.482Z,72.50
2022-09-11T08:59:50.048Z,73.46
2022-09-11T09:02:47.286Z,69.81
2022-09-11T09:05:25.330Z,68.78
2022-09-11T09:08:01.556Z,68.64
2022-09-11T09:10:31.147Z,68.56
2022-09-11T09:12:57.480Z,68.95
2022-09-11T09:15:35.120Z,69.55
2022-09-11T09:18:13.461Z,67.82
2022-09-11T09:20:47.436Z,68.23
2022-09-11T09:23:20.994Z,67.33
2022-09-11T09:25:49.270Z,66.51
2022-09-11T09:28:34.834Z,68.42
2022-09-11T09:31:07.447Z,70.04
2022-09-11T09:33:38.826Z,70.57
2022-09-11T09:36:27.228Z,71.56
2022-09-11T09:38:54.066Z,68.57
2022-09-11T09:41:20.541Z,68.95
2022-09-11T09:44:19.679Z,69.99
2022-09-11T09:46:53.131Z,70.10
2022-09-11T09:49:30.607Z,68.03
2022-09-11T09:52:03.553Z,68.68
2022-09-11T09:54:36.251Z,68.74
2022-09-11T09:57:06.496Z,69.00
2022-09-11T09:59:47.934Z,71.40
2022-09-11T10:02:41.369Z,68.26
2022-09-11T10:05:31.307Z,67.42
2022-09-11T10:07:59.351Z,65.46
2022-09-11T10:10:34.843Z,65.23
2022-09-11T10:13:18.588Z,64.93
2022-09-11T10:15:49.139Z,66.49
2022-09-11T10:18:34.507Z,66.98
2022-09-11T10:21:12.996Z,66.31
2022-09-11T10:23:58.645Z,65.72
2022-09-11T10:26:50.875Z,65.74
2022-09-11T10:29:30.138Z,61.95
2022-09-11T10:31:59.325Z,61.02
2022-09-11T10:34:28.197Z,62.92
2022-09-11T10:37:14.825Z,62.89
2022-09-11T10:39:44.189Z,61.46
2022-09-11T10:42:16.776Z,58.51
2022-09-11T10:44:45.281Z,58.20
2022-09-11T10:47:20.614Z,58.17
2022-09-11T10:49:47.763Z,59.05
2022-09-11T10:52:14.109Z,57.34
2022-09-11T10:55:06.086Z,56.54
2022-09-11T10:57:45.750Z,55.16
2022-09-11T11:00:15.990Z,60.53
2022-09-11T11:03:00.783Z,56.27
2022-09-11T11:05:34.884Z,55.66
2022-09-11T11:08:04.219Z,56.13
2022-09-11T11:10:36.676Z,59.79
2022-09-11T11:13:33.996Z,56.33
2022-09-11T11:16:21.207Z,56.48
2022-09-11T11:18:57.370Z,58.19
2022-09-11T11:21:45.107Z,57.59
2022-09-11T11:24:29.698Z,58.26
2022-09-11T11:27:08.192Z,56.99
2022-09-11T11:29:57.440Z,57.87
2022-09-11T11:32:30.318Z,55.88
2022-09-11T11:35:20.915Z,56.45
2022-09-11T11:37:49.994Z,58.75
2022-09-11T11:40:32.012Z,56.32
2022-09-11T11:43:03.455Z,56.61
2022-09-11T11:45:37.340Z,58.02
2022-09-11T11:48:16.025Z,55.54
2022-09-11T11:50:47.330Z,55.09
2022-09-11T11:53:31.285Z,58.59
2022-09-11T11:56:04.704Z,56.22
2022-09-11T11:58:52.351Z,54.26
2022-09-11T12:01:34.657Z,55.83
2022-09-11T12:04:12.322Z,54.34
2022-09-11T12:06:38.888Z,53.93
2022-09-11T12:09:08.352Z,55.59
2022-09-11T12:11:35.744Z,52.50
2022-09-11T12:14:03.084Z,54.12
2022-09-11T12:16:34.650Z,51.60
2022-09-11T12:19:01.291Z,52.50
2022-09-11T12:21:31.431Z,51.59
2022-09-11T12:23:57.776Z,53.08
2022-09-11T12:26:25.796Z,53.12
2022-09-11T12:29:14.236Z,52.76
2022-09-11T12:31:49.827Z,52.75
2022-09-11T12:34:24.895Z,51.79
2022-09-11T12:37:03.535Z,51.13
2022-09-11T12:39:34.747Z,53.50
2022-09-11T12:42:39.967Z,53.60
2022-09-11T12:45:30.520Z,53.40
2022-09-11T12:48:04.855Z,54.81
2022-09-11T12:50:31.877Z,54.09
2022-09-11T12:53:02.335Z,55.81
2022-09-11T12:55:34.610Z,52.07
2022-09-11T12:58:06.645Z,50.51
2022-09-11T13:00:38.326Z,49.75
2022-09-11T13:03:08.383Z,49.53
2022-09-11T13:05:38.434Z,51.55
2022-09-11T13:08:16.142Z,52.96
2022-09-11T13:10:42.979Z,52.93
2022-09-11T13:13:35.676Z,52.86
2022-09-11T13:16:17.445Z,52.84
2022-09-11T13:18:44.017Z,51.09
2022-09-11T13:21:10.574Z,52.73
2022-09-11T13:23:37.844Z,50.82
2022-09-11T13:26:08.009Z,50.53
2022-09-11T13:28:45.605Z,52.17
2022-09-11T13:31:19.984Z,51.13
2022-09-11T13:33:51.636Z,50.74
2022-09-11T13:36:21.961Z,49.90
2022-09-11T13:38:56.478Z,51.50
2022-09-11T13:41:33.013Z,50.13
2022-09-11T13:44:01.472Z,52.57
2022-09-11T13:46:31.212Z,51.43
2022-09-11T13:49:18.589Z,52.01
2022-09-11T13:51:47.240Z,51.07
2022-09-11T13:54:49.262Z,49.82
2022-09-11T13:57:28.111Z,49.10
2022-09-11T13:59:58.672Z,49.93
2022-09-11T14:02:45.665Z,49.74
2022-09-11T14:05:27.038Z,50.40
2022-09-11T14:08:02.378Z,51.03
2022-09-11T14:10:32.255Z,50.84
2022-09-11T14:13:09.214Z,49.54
2022-09-11T14:15:43.154Z,50.01
2022-09-11T14:18:21.050Z,49.71
2022-09-11T14:20:47.608Z,51.34
2022-09-11T14:23:21.609Z,51.16
2022-09-11T14:26:15.903Z,51.50
2022-09-11T14:28:46.661Z,50.52
2022-09-11T14:31:26.908Z,51.37
2022-09-11T14:34:22.962Z,50.90
2022-09-11T14:37:07.862Z,52.00
2022-09-11T14:39:42.048Z,52.41
2022-09-11T14:42:13.235Z,52.53
2022-09-11T14:44:41.509Z,50.07
2022-09-11T14:47:28.848Z,50.46
2022-09-11T14:49:57.411Z,51.41
2022-09-11T14:52:28.680Z,51.44
2022-09-11T14:54:56.512Z,50.30
2022-09-11T14:57:32.507Z,51.04
2022-09-11T15:00:01.999Z,49.53
2022-09-11T15:02:29.218Z,50.55
2022-09-11T15:04:57.456Z,49.55
2022-09-11T15:07:25.030Z,49.67
2022-09-11T15:09:54.949Z,49.95
2022-09-11T15:12:22.614Z,49.91
2022-09-11T15:14:58.436Z,49.91
2022-09-11T15:17:30.442Z,51.42
2022-09-11T15:20:00.242Z,51.26
2022-09-11T15:22:27.133Z,50.52
2022-09-11T15:24:53.772Z,50.09
2022-09-11T15:27:20.226Z,52.85
2022-09-11T15:29:46.641Z,50.11
2022-09-11T15:32:14.302Z,49.88
2022-09-11T15:34:42.330Z,49.83
2022-09-11T15:37:08.918Z,49.61
2022-09-11T15:39:35.491Z,50.85
2022-09-11T15:42:02.022Z,50.86
2022-09-11T15:44:29.364Z,50.71
2022-09-11T15:46:58.432Z,51.40
2022-09-11T15:49:28.019Z,52.10
2022-09-11T15:51:54.899Z,51.86
2022-09-11T15:54:23.341Z,51.95
2022-09-11T15:56:51.020Z,50.87
2022-09-11T15:59:17.673Z,51.17
2022-09-11T16:01:45.035Z,51.26
2022-09-11T16:04:15.035Z,52.70
2022-09-11T16:06:45.134Z,51.35
2022-09-11T16:09:14.546Z,51.47
2022-09-11T16:11:40.989Z,55.33
2022-09-11T16:14:08.802Z,53.47
2022-09-11T16:16:35.458Z,52.27
2022-09-11T16:19:01.991Z,52.87
2022-09-11T16:21:28.877Z,52.45
2022-09-11T16:24:00.621Z,51.87
2022-09-11T16:26:28.951Z,52.16
2022-09-11T16:28:55.438Z,53.04
2022-09-11T16:31:21.939Z,52.80
2022-09-11T16:33:49.920Z,52.62
2022-09-11T16:36:18.804Z,52.12
2022-09-11T16:38:46.228Z,51.99
2022-09-11T16:41:20.077Z,50.60
2022-09-11T16:43:52.249Z,50.29
2022-09-11T16:46:21.114Z,48.89
2022-09-11T16:48:51.886Z,48.03
2022-09-11T16:51:20.982Z,48.03
2022-09-11T16:53:47.897Z,48.78
2022-09-11T16:56:17.260Z,48.08
2022-09-11T16:58:44.301Z,48.57
2022-09-11T17:01:14.767Z,49.33
2022-09-11T17:03:43.485Z,48.09
2022-09-11T17:06:10.848Z,47.87
2022-09-11T17:08:39.107Z,48.09
2022-09-11T17:11:09.650Z,48.28
2022-09-11T17:13:36.531Z,49.00
2022-09-11T17:16:23.855Z,48.29
2022-09-11T17:18:56.620Z,48.66
2022-09-11T17:21:24.766Z,48.48
2022-09-11T17:23:52.946Z,48.49
2022-09-11T17:26:19.945Z,48.81
2022-09-11T17:28:48.723Z,50.27
2022-09-11T17:31:16.592Z,50.76
2022-09-11T17:33:45.305Z,51.46
2022-09-11T17:36:14.669Z,51.61
2022-09-11T17:38:41.283Z,52.41
2022-09-11T17:41:08.918Z,52.46
2022-09-11T17:43:36.753Z,52.11
2022-09-11T17:46:06.333Z,52.54
2022-09-11T17:48:32.910Z,52.36
2022-09-11T17:51:01.336Z,53.79
2022-09-11T17:53:33.401Z,53.31
2022-09-11T17:56:04.514Z,53.38
2022-09-11T17:58:30.959Z,53.65
2022-09-11T18:01:00.556Z,53.77
2022-09-11T18:03:28.758Z,53.72
2022-09-11T18:05:55.827Z,53.87
2022-09-11T18:08:22.418Z,54.23
2022-09-11T18:10:51.201Z,54.49
2022-09-11T18:13:17.663Z,54.57
2022-09-11T18:15:44.103Z,54.83
2022-09-11T18:18:10.496Z,55.19
2022-09-11T18:20:36.922Z,54.99
2022-09-11T18:23:03.332Z,55.59
2022-09-11T18:25:30.084Z,55.86
2022-09-11T18:27:56.493Z,56.47
2022-09-11T18:30:22.914Z,57.43
2022-09-11T18:32:49.978Z,57.06
2022-09-11T18:35:17.344Z,56.96
2022-09-11T18:37:43.770Z,58.30
2022-09-11T18:40:10.220Z,58.01
2022-09-11T18:42:36.661Z,58.36
2022-09-11T18:45:03.262Z,58.75
2022-09-11T18:47:30.544Z,58.10
2022-09-11T18:49:59.599Z,57.01
2022-09-11T18:52:26.473Z,56.91
2022-09-11T18:54:52.882Z,57.07
2022-09-11T18:57:19.350Z,56.90
2022-09-11T18:59:45.698Z,56.41
2022-09-11T19:02:12.449Z,56.85
2022-09-11T19:04:39.160Z,56.23
2022-09-11T19:07:05.811Z,55.61
2022-09-11T19:09:32.234Z,55.16
2022-09-11T19:12:00.238Z,55.71
2022-09-11T19:14:27.666Z,55.59
2022-09-11T19:16:54.163Z,55.07
2022-09-11T19:19:20.666Z,55.46
2022-09-11T19:21:47.703Z,55.49
2022-09-11T19:24:14.170Z,55.04
2022-09-11T19:26:43.465Z,55.57
2022-09-11T19:29:10.951Z,55.78
2022-09-11T19:31:39.086Z,55.40
2022-09-11T19:34:08.231Z,55.53
2022-09-11T19:36:35.952Z,55.40
2022-09-11T19:39:03.535Z,55.29
2022-09-11T19:41:33.176Z,54.64
2022-09-11T19:44:02.149Z,55.13
2022-09-11T19:46:30.451Z,54.71
2022-09-11T19:49:00.729Z,54.81
2022-09-11T19:51:30.189Z,54.80
2022-09-11T19:54:00.352Z,55.19
2022-09-11T19:56:27.974Z,55.42
2022-09-11T19:58:56.048Z,55.25
2022-09-11T20:01:24.353Z,55.45
2022-09-11T20:03:55.659Z,56.02
2022-09-11T20:06:26.038Z,55.88
2022-09-11T20:09:07.967Z,55.90
2022-09-11T20:11:40.229Z,55.81
2022-09-11T20:14:06.835Z,55.86
2022-09-11T20:16:33.644Z,55.73
2022-09-11T20:19:09.249Z,55.88
2022-09-11T20:21:36.152Z,55.78
2022-09-11T20:24:04.756Z,55.86
2022-09-11T20:26:32.352Z,55.90
2022-09-11T20:29:01.124Z,55.78
2022-09-11T20:31:31.636Z,55.53
2022-09-11T20:34:00.484Z,55.68
2022-09-11T20:36:29.906Z,56.05
2022-09-11T20:39:00.882Z,55.96
2022-09-11T20:41:29.992Z,56.50
2022-09-11T20:43:58.041Z,56.99
2022-09-11T20:46:24.586Z,57.26
2022-09-11T20:48:52.876Z,58.09
2022-09-11T20:51:21.771Z,57.89
2022-09-11T20:53:48.966Z,58.07
2022-09-11T20:56:18.114Z,58.66
2022-09-11T20:58:44.847Z,59.05
2022-09-11T21:01:14.374Z,59.36
2022-09-11T21:03:49.682Z,61.03
2022-09-11T21:06:16.204Z,62.33
2022-09-11T21:08:44.255Z,60.82
2022-09-11T21:11:12.042Z,60.02
2022-09-11T21:13:41.064Z,60.34
2022-09-11T21:16:10.128Z,60.46
2022-09-11T21:18:38.580Z,60.38
2022-09-11T21:21:06.049Z,60.39
2022-09-11T21:23:32.591Z,60.47
2022-09-11T21:25:59.092Z,60.75
2022-09-11T21:28:25.512Z,61.03
2022-09-11T21:30:52.162Z,61.29
2022-09-11T21:33:18.919Z,60.95
2022-09-11T21:35:52.302Z,60.95
2022-09-11T21:38:20.836Z,60.99
2022-09-11T21:40:47.761Z,61.29
2022-09-11T21:43:14.296Z,61.67
2022-09-11T21:45:41.037Z,61.54
2022-09-11T21:48:09.062Z,61.48
2022-09-11T21:50:37.287Z,61.64
2022-09-11T21:53:04.982Z,61.37
2022-09-11T21:55:31.508Z,61.62
2022-09-11T21:57:59.245Z,61.41
2022-09-11T22:00:25.650Z,61.51
2022-09-11T22:02:52.062Z,61.54
2022-09-11T22:05:18.469Z,61.69
2022-09-11T22:07:44.888Z,61.81
2022-09-11T22:10:11.276Z,61.80
2022-09-11T22:12:37.701Z,62.32
2022-09-11T22:15:04.335Z,61.81
2022-09-11T22:17:30.782Z,61.92
2022-09-11T22:19:57.182Z,61.98
2022-09-11T22:22:23.790Z,62.33
2022-09-11T22:24:50.223Z,62.50
2022-09-11T22:27:16.589Z,62.39
2022-09-11T22:29:46.932Z,62.17
2022-09-11T22:32:13.563Z,62.05
2022-09-11T22:34:40.063Z,61.95
2022-09-11T22:37:06.482Z,61.95
2022-09-11T22:39:32.990Z,62.29
2022-09-11T22:41:59.658Z,62.61
2022-09-11T22:44:26.513Z,62.35
2022-09-11T22:46:53.333Z,62.14
2022-09-11T22:49:19.754Z,62.29
2022-09-11T22:51:46.154Z,62.45
2022-09-11T22:54:13.726Z,62.47
2022-09-11T22:56:40.386Z,62.60
2022-09-11T22:59:07.205Z,62.68
2022-09-11T23:01:33.939Z,62.38
2022-09-11T23:04:00.342Z,62.09
2022-09-11T23:06:45.278Z,62.78
2022-09-11T23:09:16.575Z,62.50
2022-09-11T23:11:45.101Z,62.67
2022-09-11T23:14:14.464Z,62.70
2022-09-11T23:16:42.107Z,62.75
2022-09-11T23:19:12.204Z,62.71
2022-09-11T23:21:38.653Z,62.80
2022-09-11T23:24:10.369Z,62.34
2022-09-11T23:26:36.804Z,63.15
2022-09-11T23:29:03.288Z,63.15
2022-09-11T23:31:32.153Z,62.68
2022-09-11T23:34:01.418Z,62.65
2022-09-11T23:36:28.912Z,62.36
2022-09-11T23:38:55.699Z,63.04
2022-09-11T23:41:22.907Z,63.03
2022-09-11T23:43:49.446Z,62.65
2022-09-11T23:46:16.353Z,62.46
2022-09-11T23:48:43.631Z,62.91
2022-09-11T23:51:10.973Z,62.79
2022-09-11T23:53:44.776Z,62.62
2022-09-11T23:56:14.206Z,62.71
2022-09-11T23:58:40.720Z,62.79
